Time;durP1;ratioP1;P1;durP2;ratioP2;P2;SDS_P1;SDS_P2;PMS_P1;PMS_P2;Temp;Humidity;BMP_temperature;BMP_pressure;BME280_temperature;BME280_humidity;BME280_pressure;Samples;Min_cycle;Max_cycle;Signal;HPM_P1;HPM_P2
2022/02/16 00:35:23;;;;;;;2.35;1.15;;;7.10;99.90;;;;;;4942986;28;20035;-88
2022/02/16 00:37:50;;;;;;;2.72;0.70;;;7.20;99.90;;;;;;4930228;29;20043;-89
2022/02/16 00:40:16;;;;;;;2.78;0.70;;;7.20;99.90;;;;;;4945436;29;20408;-88
2022/02/16 00:42:42;;;;;;;1.90;1.30;;;7.20;99.90;;;;;;4946972;28;20039;-89
2022/02/16 00:45:08;;;;;;;2.10;1.25;;;7.20;99.90;;;;;;4917371;28;20035;-89
2022/02/16 00:47:51;;;;;;;;;;;;;;;;;;;;;
2022/02/16 00:50:17;;;;;;;2.38;0.70;;;7.20;99.90;;;;;;4948654;28;20057;-89
2022/02/16 00:52:45;;;;;;;1.58;1.10;;;7.20;99.90;;;;;;4944178;29;20103;-88
2022/02/16 00:55:10;;;;;;;0.63;0.50;;;7.20;99.90;;;;;;4942337;29;20048;-88
2022/02/16 00:57:36;;;;;;;2.20;1.25;;;7.10;99.90;;;;;;4920628;28;20042;-88
2022/02/16 01:00:04;;;;;;;2.50;0.82;;;7.20;99.90;;;;;;4916346;28;20503;-88
2022/02/16 01:02:29;;;;;;;1.98;1.55;;;7.20;99.90;;;;;;4939567;28;20028;-89
2022/02/16 01:04:55;;;;;;;2.55;1.30;;;7.20;99.90;;;;;;4944098;28;20487;-88
2022/02/16 01:07:20;;;;;;;0.57;0.57;;;7.20;99.90;;;;;;4932781;29;20039;-88
2022/02/16 01:09:46;;;;;;;2.65;1.25;;;7.20;99.90;;;;;;4948385;28;20031;-89
2022/02/16 01:12:11;;;;;;;1.35;0.95;;;7.20;99.90;;;;;;4945355;29;20039;-88
2022/02/16 01:14:38;;;;;;;0.52;0.45;;;7.20;99.90;;;;;;4945387;28;20114;-88
2022/02/16 01:17:04;;;;;;;1.27;0.63;;;7.20;99.90;;;;;;4918606;29;20035;-88
2022/02/16 01:19:30;;;;;;;3.65;1.15;;;7.20;99.90;;;;;;4926781;28;20036;-88
2022/02/16 01:21:55;;;;;;;1.33;1.08;;;7.30;99.90;;;;;;4925572;29;20167;-88
2022/02/16 01:24:21;;;;;;;0.93;0.60;;;7.30;99.90;;;;;;4933873;29;20119;-88
2022/02/16 01:26:47;;;;;;;2.63;0.70;;;7.40;99.90;;;;;;4931997;29;20035;-88
2022/02/16 01:29:12;;;;;;;1.33;0.93;;;7.30;99.90;;;;;;4940026;29;20120;-88
2022/02/16 01:31:38;;;;;;;5.38;0.50;;;7.30;99.90;;;;;;4927518;28;20027;-88
2022/02/16 01:34:04;;;;;;;2.13;1.38;;;7.20;99.90;;;;;;4919531;28;20035;-89
2022/02/16 01:36:29;;;;;;;2.22;1.48;;;7.30;99.90;;;;;;4930841;29;20031;-90
2022/02/16 01:38:55;;;;;;;2.28;1.02;;;7.30;99.90;;;;;;4929620;28;20038;-89
2022/02/16 01:41:21;;;;;;;1.75;1.20;;;7.30;99.90;;;;;;4931638;29;20067;-89
2022/02/16 01:43:50;;;;;;;1.20;0.80;;;7.20;99.90;;;;;;4934510;28;20098;-89
2022/02/16 01:46:16;;;;;;;1.80;0.93;;;7.30;99.90;;;;;;4930477;28;20039;-89
2022/02/16 01:48:42;;;;;;;2.15;1.10;;;7.30;99.90;;;;;;4930985;28;20050;-89
2022/02/16 01:51:08;;;;;;;3.65;1.10;;;7.30;99.90;;;;;;4911832;28;20412;-89
2022/02/16 01:53:33;;;;;;;0.68;0.38;;;7.30;99.90;;;;;;4939007;28;20062;-89
2022/02/16 01:55:59;;;;;;;0.75;0.75;;;7.30;99.90;;;;;;4932370;28;20152;-89
2022/02/16 01:58:24;;;;;;;1.42;0.98;;;7.30;99.90;;;;;;4945902;28;20031;-89
2022/02/16 02:00:50;;;;;;;1.15;0.80;;;7.30;99.90;;;;;;4930937;28;20035;-89
2022/02/16 02:03:15;;;;;;;1.17;0.28;;;7.20;99.90;;;;;;4919061;29;20392;-89
2022/02/16 02:05:41;;;;;;;1.02;0.60;;;7.30;99.90;;;;;;4924460;28;20091;-88
2022/02/16 02:08:07;;;;;;;2.92;0.90;;;7.30;99.90;;;;;;4925884;29;20042;-89
2022/02/16 02:10:33;;;;;;;1.75;1.20;;;7.30;99.90;;;;;;4957405;28;20035;-89
2022/02/16 02:12:59;;;;;;;0.75;0.45;;;7.30;99.90;;;;;;4926623;28;20036;-89
2022/02/16 02:15:25;;;;;;;1.55;1.00;;;7.30;99.90;;;;;;4942951;28;20082;-89
2022/02/16 02:17:50;;;;;;;1.23;1.13;;;7.20;99.90;;;;;;4923204;28;20043;-89
2022/02/16 02:20:23;;;;;;;0.73;0.45;;;7.30;99.90;;;;;;4931644;29;20070;-89
2022/02/16 02:22:49;;;;;;;2.72;1.27;;;7.30;99.90;;;;;;4917248;28;20055;-89
2022/02/16 02:25:15;;;;;;;1.73;0.88;;;7.30;99.90;;;;;;4938559;28;20404;-88
2022/02/16 02:27:41;;;;;;;1.35;1.15;;;7.40;99.90;;;;;;4944024;28;20027;-88
2022/02/16 02:30:06;;;;;;;2.20;0.95;;;7.30;99.90;;;;;;4928705;29;20043;-88
2022/02/16 02:32:32;;;;;;;3.03;1.27;;;7.30;99.90;;;;;;4927458;29;20044;-89
2022/02/16 02:34:58;;;;;;;1.35;1.10;;;7.30;99.90;;;;;;4932040;28;20038;-87
2022/02/16 02:37:23;;;;;;;1.98;0.82;;;7.30;99.90;;;;;;4929585;29;20039;-89
2022/02/16 02:39:49;;;;;;;2.38;1.15;;;7.30;99.90;;;;;;4932864;28;20036;-89
2022/02/16 02:42:14;;;;;;;1.83;0.65;;;7.30;99.90;;;;;;4930615;29;20044;-89
2022/02/16 02:44:40;;;;;;;0.60;0.40;;;7.40;99.90;;;;;;4943270;28;20451;-88
2022/02/16 02:47:06;;;;;;;3.85;1.55;;;7.30;99.90;;;;;;4926223;29;20166;-89
2022/02/16 02:49:32;;;;;;;2.88;0.70;;;7.30;99.90;;;;;;4927997;28;20032;-89
2022/02/16 02:51:58;;;;;;;0.60;0.60;;;7.40;99.90;;;;;;4932322;28;20039;-88
2022/02/16 02:54:23;;;;;;;1.98;1.33;;;7.40;99.90;;;;;;4925764;29;20050;-89
2022/02/16 02:56:49;;;;;;;1.30;1.00;;;7.40;99.90;;;;;;4932169;28;20035;-89
2022/02/16 02:59:14;;;;;;;0.60;0.60;;;7.40;99.90;;;;;;4919804;29;20042;-89
2022/02/16 03:02:10;;;;;;;2.88;1.00;;;7.40;99.90;;;;;;4916842;28;20138;-89
2022/02/16 03:04:35;;;;;;;0.85;0.55;;;7.30;99.90;;;;;;4919603;28;20443;-89
2022/02/16 03:07:01;;;;;;;2.65;0.75;;;7.40;99.90;;;;;;4927528;28;20097;-89
2022/02/16 03:09:27;;;;;;;2.85;1.15;;;7.40;99.90;;;;;;4927802;29;20089;-89
2022/02/16 03:11:52;;;;;;;1.08;0.75;;;7.40;99.90;;;;;;4941593;28;20024;-89
2022/02/16 03:14:18;;;;;;;1.55;0.90;;;7.30;99.90;;;;;;4941017;28;21035;-89
2022/02/16 03:16:43;;;;;;;1.45;0.70;;;7.40;99.90;;;;;;4945141;28;20489;-89
2022/02/16 03:19:09;;;;;;;2.17;1.08;;;7.40;99.90;;;;;;4927110;29;20528;-89
2022/02/16 03:21:37;;;;;;;0.52;0.50;;;7.30;99.90;;;;;;4921997;28;20184;-88
2022/02/16 03:24:02;;;;;;;1.88;0.77;;;7.40;99.90;;;;;;4925937;28;20695;-89
2022/02/16 03:26:28;;;;;;;1.38;1.27;;;7.40;99.90;;;;;;4939390;28;20131;-89
2022/02/16 03:28:53;;;;;;;2.40;1.33;;;7.40;99.90;;;;;;4919176;28;20043;-89
2022/02/16 03:31:19;;;;;;;0.80;0.52;;;7.40;99.90;;;;;;4921349;29;20119;-88
2022/02/16 03:33:45;;;;;;;0.90;0.68;;;7.50;99.90;;;;;;4936949;28;20407;-90
2022/02/16 03:36:12;;;;;;;0.98;0.88;;;7.50;99.90;;;;;;4927647;29;20040;-89
2022/02/16 03:38:38;;;;;;;1.02;0.77;;;7.50;99.90;;;;;;4925707;28;20023;-89
2022/02/16 03:41:04;;;;;;;1.23;1.00;;;7.50;99.90;;;;;;4930776;28;20090;-89
2022/02/16 03:43:29;;;;;;;2.03;1.30;;;7.50;99.90;;;;;;4920763;29;20119;-88
2022/02/16 03:45:55;;;;;;;1.75;0.95;;;7.50;99.90;;;;;;4942603;28;20066;-89
2022/02/16 03:48:20;;;;;;;1.27;0.85;;;7.60;99.90;;;;;;4923370;29;20110;-89
2022/02/16 03:50:46;;;;;;;1.77;1.20;;;7.50;99.90;;;;;;4934448;28;20031;-89
2022/02/16 03:53:12;;;;;;;1.35;0.73;;;7.50;99.90;;;;;;4939665;28;20035;-89
2022/02/16 03:55:37;;;;;;;1.13;1.02;;;7.50;99.90;;;;;;4922644;28;20039;-90
2022/02/16 03:58:03;;;;;;;0.40;0.32;;;7.60;99.90;;;;;;4922383;29;20042;-90
2022/02/16 04:00:28;;;;;;;0.60;0.60;;;7.50;99.90;;;;;;4923460;29;20078;-90
2022/02/16 04:02:54;;;;;;;0.70;0.57;;;7.50;99.90;;;;;;4944287;28;20475;-89
2022/02/16 04:05:19;;;;;;;0.75;0.57;;;7.60;99.90;;;;;;4933275;29;20055;-90
2022/02/16 04:07:45;;;;;;;0.70;0.50;;;7.60;99.90;;;;;;4924560;28;20058;-89
2022/02/16 04:10:11;;;;;;;0.30;0.30;;;7.60;99.90;;;;;;4927621;28;20465;-90
2022/02/16 04:12:36;;;;;;;0.90;0.70;;;7.60;99.90;;;;;;4924681;28;20035;-89
2022/02/16 04:15:02;;;;;;;0.40;0.40;;;7.60;99.90;;;;;;4912909;29;20055;-89
2022/02/16 04:17:28;;;;;;;0.77;0.57;;;7.60;99.90;;;;;;4913875;29;20043;-89
2022/02/16 04:19:54;;;;;;;2.03;0.80;;;7.70;99.90;;;;;;4948773;28;20039;-90
2022/02/16 04:22:20;;;;;;;1.50;0.93;;;7.60;99.90;;;;;;4931000;28;20074;-90
2022/02/16 04:24:46;;;;;;;0.90;0.80;;;7.70;99.90;;;;;;4942479;28;20073;-91
2022/02/16 04:27:11;;;;;;;0.50;0.50;;;7.60;99.90;;;;;;4938586;28;20067;-90
2022/02/16 04:29:37;;;;;;;1.92;0.70;;;7.60;99.90;;;;;;4908380;28;20036;-90
2022/02/16 04:32:03;;;;;;;1.25;0.60;;;7.70;99.90;;;;;;4914069;29;20030;-91
2022/02/16 04:34:29;;;;;;;1.35;0.57;;;7.70;99.90;;;;;;4931004;29;20039;-90
2022/02/16 04:36:54;;;;;;;2.53;0.82;;;7.70;99.90;;;;;;4932605;28;20027;-90
2022/02/16 04:39:20;;;;;;;1.40;0.60;;;7.60;99.90;;;;;;4938660;28;20040;-90
2022/02/16 04:41:45;;;;;;;0.70;0.40;;;7.70;99.90;;;;;;4928045;28;20447;-90
2022/02/16 04:44:11;;;;;;;3.03;0.80;;;7.70;99.90;;;;;;4942945;28;20134;-90
2022/02/16 04:46:36;;;;;;;1.48;0.80;;;7.70;99.90;;;;;;4930707;28;20042;-90
2022/02/16 04:49:02;;;;;;;1.92;0.88;;;7.70;99.90;;;;;;4908235;29;20130;-90
2022/02/16 04:51:28;;;;;;;1.35;0.80;;;7.70;99.90;;;;;;4914866;29;20060;-90
2022/02/16 04:53:53;;;;;;;0.63;0.52;;;7.70;99.90;;;;;;4931145;28;20054;-90
2022/02/16 04:56:19;;;;;;;1.15;0.55;;;7.70;99.90;;;;;;4942767;28;20332;-90
2022/02/16 04:58:45;;;;;;;1.63;1.13;;;7.80;99.90;;;;;;4955888;28;20030;-90
2022/02/16 05:01:15;;;;;;;1.95;1.27;;;7.70;99.90;;;;;;4927757;28;20071;-90
2022/02/16 05:03:41;;;;;;;0.77;0.52;;;7.80;99.90;;;;;;4927749;28;20028;-90
2022/02/16 05:06:06;;;;;;;2.58;0.80;;;7.70;99.90;;;;;;4931677;28;20518;-90
2022/02/16 05:08:32;;;;;;;0.75;0.50;;;7.70;99.90;;;;;;4941010;28;20038;-91
2022/02/16 05:10:57;;;;;;;4.45;0.88;;;7.70;99.90;;;;;;4929862;28;20034;-90
2022/02/16 05:13:23;;;;;;;1.20;0.47;;;7.70;99.90;;;;;;4938727;28;20035;-90
2022/02/16 05:15:48;;;;;;;0.10;0.10;;;7.70;99.90;;;;;;4912297;28;20147;-90
2022/02/16 05:18:14;;;;;;;1.02;0.73;;;7.70;99.90;;;;;;4929034;29;20044;-90
2022/02/16 05:20:39;;;;;;;1.42;0.38;;;7.70;99.90;;;;;;4925032;28;20503;-90
2022/02/16 05:23:05;;;;;;;0.52;0.35;;;7.70;99.90;;;;;;4942892;28;20515;-90
2022/02/16 05:25:31;;;;;;;0.50;0.25;;;7.70;99.90;;;;;;4955371;28;20391;-90
2022/02/16 05:27:56;;;;;;;1.00;0.80;;;7.70;99.90;;;;;;4939095;28;20130;-90
2022/02/16 05:30:22;;;;;;;2.47;1.05;;;7.70;99.90;;;;;;4937987;28;20074;-90
2022/02/16 05:32:47;;;;;;;1.48;0.90;;;7.70;99.90;;;;;;4928068;28;20133;-90
2022/02/16 05:35:13;;;;;;;0.95;0.80;;;7.80;99.90;;;;;;4928098;29;20044;-90
2022/02/16 05:37:39;;;;;;;0.70;0.55;;;7.80;99.90;;;;;;4927618;28;20580;-90
2022/02/16 05:40:05;;;;;;;1.63;1.10;;;7.80;99.90;;;;;;4945083;28;20492;-90
2022/02/16 05:42:31;;;;;;;0.52;0.52;;;7.80;99.90;;;;;;4939791;28;20036;-90
2022/02/16 05:44:56;;;;;;;0.90;0.70;;;7.80;99.90;;;;;;4948391;28;20042;-90
2022/02/16 05:47:22;;;;;;;1.92;1.13;;;7.80;99.90;;;;;;4941031;28;20070;-90
2022/02/16 05:49:48;;;;;;;2.35;1.17;;;7.80;99.90;;;;;;4926437;28;20030;-90
2022/02/16 05:52:13;;;;;;;1.23;0.52;;;7.80;99.90;;;;;;4940394;28;20028;-89
2022/02/16 05:54:39;;;;;;;1.20;1.10;;;7.80;99.90;;;;;;4924772;28;20485;-90
2022/02/16 05:57:05;;;;;;;3.08;1.02;;;7.80;99.90;;;;;;4921054;29;20062;-90
2022/02/16 05:59:31;;;;;;;1.33;0.80;;;7.80;99.90;;;;;;4918256;29;20400;-90
2022/02/16 06:02:02;;;;;;;1.55;0.93;;;7.80;99.90;;;;;;4940458;28;20039;-90
2022/02/16 06:04:30;;;;;;;1.35;1.00;;;7.80;99.90;;;;;;4954115;28;20028;-90
2022/02/16 06:06:55;;;;;;;1.38;1.08;;;7.90;99.90;;;;;;4925309;28;20443;-89
2022/02/16 06:09:21;;;;;;;0.38;0.25;;;7.80;99.90;;;;;;4940072;28;20043;-90
2022/02/16 06:11:46;;;;;;;1.02;0.80;;;7.80;99.90;;;;;;4942500;28;20503;-90
2022/02/16 06:14:12;;;;;;;0.47;0.47;;;7.90;99.90;;;;;;4929272;28;20114;-90
2022/02/16 06:16:37;;;;;;;1.52;0.70;;;7.80;99.90;;;;;;4913914;28;20552;-90
2022/02/16 06:19:03;;;;;;;0.60;0.30;;;7.90;99.90;;;;;;4929248;28;20125;-90
2022/02/16 06:21:29;;;;;;;0.95;0.50;;;7.90;99.90;;;;;;4931531;29;20028;-90
2022/02/16 06:23:54;;;;;;;0.70;0.50;;;7.90;99.90;;;;;;4940261;28;20502;-90
2022/02/16 06:26:20;;;;;;;0.35;0.35;;;7.90;99.90;;;;;;4933006;28;20119;-90
2022/02/16 06:28:45;;;;;;;1.48;0.40;;;7.90;99.90;;;;;;4919360;28;20039;-91
2022/02/16 06:31:11;;;;;;;2.17;0.47;;;7.90;99.90;;;;;;4932955;28;20491;-89
2022/02/16 06:33:37;;;;;;;1.27;0.52;;;7.90;99.90;;;;;;4935139;28;20043;-90
2022/02/16 06:36:09;;;;;;;0.57;0.38;;;8.00;99.90;;;;;;4927830;29;20040;-90
2022/02/16 06:38:34;;;;;;;0.65;0.32;;;8.00;99.90;;;;;;4920116;28;20059;-91
2022/02/16 06:41:00;;;;;;;2.65;0.35;;;8.00;99.90;;;;;;4934241;28;20035;-91
2022/02/16 06:43:25;;;;;;;0.75;0.43;;;8.00;99.90;;;;;;4939891;29;20064;-91
2022/02/16 06:45:54;;;;;;;0.28;0.28;;;8.00;99.90;;;;;;4953949;28;20123;-91
2022/02/16 06:48:22;;;;;;;1.27;0.52;;;8.00;99.90;;;;;;4928893;29;20043;-91
2022/02/16 06:50:48;;;;;;;1.63;0.63;;;8.00;99.90;;;;;;4928242;28;20043;-91
2022/02/16 06:53:30;;;;;;;;;;;;;;;;;;;;;
2022/02/16 06:55:59;;;;;;;0.85;0.60;;;8.00;99.90;;;;;;4944451;28;20113;-91
2022/02/16 06:58:24;;;;;;;0.40;0.32;;;8.00;99.90;;;;;;4939980;28;20062;-91
2022/02/16 07:00:50;;;;;;;2.33;0.60;;;8.00;99.90;;;;;;4910853;28;20043;-91
2022/02/16 07:03:17;;;;;;;1.00;0.65;;;8.00;99.90;;;;;;4898219;28;20035;-92
2022/02/16 07:06:04;;;;;;;0.45;0.38;;;8.00;99.90;;;;;;4928043;28;20153;-91
2022/02/16 07:08:36;;;;;;;1.02;0.43;;;8.00;99.90;;;;;;4936624;28;20047;-91
2022/02/16 07:11:04;;;;;;;1.50;0.52;;;8.00;99.90;;;;;;4922117;28;20062;-91
2022/02/16 07:13:30;;;;;;;0.40;0.30;;;8.00;99.90;;;;;;4887897;28;20036;-91
2022/02/16 07:15:55;;;;;;;0.95;0.50;;;8.10;99.90;;;;;;4892567;28;20535;-91
2022/02/16 07:18:21;;;;;;;0.28;0.25;;;8.10;99.90;;;;;;4939094;29;20480;-91
2022/02/16 07:20:57;;;;;;;0.85;0.43;;;8.10;99.90;;;;;;4929002;28;20083;-92
2022/02/16 07:23:24;;;;;;;0.60;0.25;;;8.10;99.90;;;;;;4922517;28;20071;-91
2022/02/16 07:25:49;;;;;;;1.17;0.52;;;8.10;99.90;;;;;;4936552;28;20028;-92
2022/02/16 07:28:15;;;;;;;0.88;0.60;;;8.20;99.90;;;;;;4924359;28;20035;-92
2022/02/16 07:30:53;;;;;;;0.70;0.50;;;8.10;99.90;;;;;;4922229;28;20091;-92
2022/02/16 07:33:26;;;;;;;2.22;0.40;;;8.10;99.90;;;;;;4929684;29;20044;-92
2022/02/16 07:36:17;;;;;;;0.50;0.30;;;8.20;99.90;;;;;;4921807;29;20041;-92
2022/02/16 07:38:48;;;;;;;0.93;0.50;;;8.20;99.90;;;;;;4905101;28;20039;-91
2022/02/16 07:42:04;;;;;;;0.30;0.30;;;8.30;99.90;;;;;;4903748;29;20044;-92
2022/02/16 07:45:06;;;;;;;0.93;0.50;;;8.20;99.90;;;;;;4869864;29;20095;-91
2022/02/16 07:47:48;;;;;;;1.52;0.40;;;8.20;99.90;;;;;;4915594;28;20038;-91
2022/02/16 07:50:39;;;;;;;2.45;0.57;;;8.30;99.90;;;;;;4897741;28;21490;-91
2022/02/16 07:53:17;;;;;;;1.65;0.60;;;8.40;99.90;;;;;;4913308;28;20627;-92
2022/02/16 07:56:12;;;;;;;0.70;0.32;;;8.20;99.90;;;;;;4879485;29;20040;-91
2022/02/16 07:59:07;;;;;;;1.38;0.55;;;8.30;99.90;;;;;;4916641;28;20060;-91
2022/02/16 08:02:30;;;;;;;1.00;0.43;;;8.30;99.90;;;;;;4924429;28;20640;-91
2022/02/16 08:05:30;;;;;;;0.50;0.40;;;8.40;99.90;;;;;;4901366;28;20071;-92
2022/02/16 08:11:09;;;;;;;0.93;0.40;;;8.40;99.90;;;;;;4883481;28;20824;-89
2022/02/16 08:13:38;;;;;;;2.83;0.80;;;8.40;99.90;;;;;;4909397;28;20091;-89
2022/02/16 08:16:06;;;;;;;3.17;0.60;;;8.40;99.90;;;;;;4912597;28;20036;-90
2022/02/16 08:18:55;;;;;;;4.10;0.82;;;8.40;99.90;;;;;;4879908;29;20288;-90
2022/02/16 08:27:31;;;;;;;1.38;0.60;;;8.50;99.90;;;;;;4897119;28;20647;-90
2022/02/16 08:30:00;;;;;;;0.75;0.52;;;8.50;99.90;;;;;;4910615;28;20035;-90
2022/02/16 08:32:25;;;;;;;2.58;0.70;;;8.50;99.90;;;;;;4906216;29;20037;-91
2022/02/16 08:34:51;;;;;;;0.60;0.47;;;8.50;99.90;;;;;;4909070;28;20137;-91
2022/02/16 08:37:33;;;;;;;1.77;0.85;;;8.60;99.90;;;;;;4909423;28;20186;-91
2022/02/16 08:40:51;;;;;;;0.90;0.55;;;8.50;99.90;;;;;;4916679;28;20300;-91
2022/02/16 08:46:48;;;;;;;0.60;0.40;;;8.60;99.90;;;;;;4927326;28;20142;-90
2022/02/16 08:49:38;;;;;;;;;;;;;;;;;;;;;
2022/02/16 08:52:25;;;;;;;0.95;0.32;;;8.60;99.90;;;;;;4933483;28;20126;-90
2022/02/16 08:55:00;;;;;;;2.63;0.63;;;8.70;99.90;;;;;;4898444;28;20062;-90
2022/02/16 09:20:31;;;;;;;0.50;0.40;;;8.90;99.90;;;;;;4765358;29;20043;-91
2022/02/16 09:23:25;;;;;;;0.50;0.50;;;9.00;99.90;;;;;;4751828;29;20042;-91
2022/02/16 09:32:04;;;;;;;1.75;0.20;;;9.10;99.90;;;;;;4892123;29;20125;-90
2022/02/16 09:35:03;;;;;;;1.17;0.38;;;9.10;99.90;;;;;;4877825;29;20059;-90
2022/02/16 09:37:31;;;;;;;0.63;0.50;;;9.20;99.90;;;;;;4887086;28;20036;-91
2022/02/16 09:39:57;;;;;;;0.20;0.10;;;9.20;99.90;;;;;;4913372;28;20035;-91
2022/02/16 09:42:29;;;;;;;1.27;0.40;;;9.30;99.90;;;;;;4897462;28;20503;-91
2022/02/16 09:45:09;;;;;;;0.70;0.17;;;9.30;99.90;;;;;;4896044;28;20032;-91
2022/02/16 09:47:53;;;;;;;0.65;0.50;;;9.40;99.90;;;;;;4896326;28;20048;-91
2022/02/16 09:51:02;;;;;;;0.30;0.30;;;9.40;99.90;;;;;;4885761;29;20043;-90
2022/02/16 09:53:42;;;;;;;0.28;0.13;;;9.50;99.90;;;;;;4891439;28;20035;-91
2022/02/16 09:56:18;;;;;;;0.30;0.20;;;9.50;99.90;;;;;;4962748;28;20045;-91
2022/02/16 09:59:03;;;;;;;0.30;0.20;;;9.60;99.90;;;;;;4922824;28;20074;-91
2022/02/16 10:02:27;;;;;;;;;;;;;;;;;;;;;
2022/02/16 12:12:57;;;;;;;3.08;1.38;;;11.20;99.90;;;;;;4912171;28;20042;-87
2022/02/16 12:15:28;;;;;;;0.63;0.43;;;11.30;99.90;;;;;;4882500;28;20484;-87
2022/02/16 12:18:01;;;;;;;0.60;0.60;;;11.30;99.90;;;;;;4919768;28;20570;-87
2022/02/16 12:20:26;;;;;;;1.77;1.63;;;11.40;99.90;;;;;;4905622;28;20523;-87
2022/02/16 12:22:52;;;;;;;1.08;1.02;;;11.30;99.90;;;;;;4923949;28;20036;-87
2022/02/16 12:25:20;;;;;;;1.20;1.00;;;11.50;99.90;;;;;;4925529;29;20035;-87
2022/02/16 12:27:45;;;;;;;0.98;0.70;;;11.30;99.90;;;;;;4912640;28;20123;-86
2022/02/16 12:30:34;;;;;;;0.85;0.63;;;11.30;99.90;;;;;;4904785;28;20074;-86
2022/02/16 12:33:23;;;;;;;0.80;0.70;;;11.30;99.90;;;;;;4908421;28;20043;-87
2022/02/16 12:35:48;;;;;;;0.88;0.88;;;11.40;99.90;;;;;;4897960;29;20031;-87
2022/02/16 12:38:22;;;;;;;1.23;0.88;;;11.30;99.90;;;;;;4894481;28;20722;-86
2022/02/16 12:40:48;;;;;;;1.35;1.23;;;11.30;99.90;;;;;;4874746;29;20123;-86
2022/02/16 12:43:13;;;;;;;0.75;0.65;;;11.30;99.90;;;;;;4935156;28;20138;-86
2022/02/16 12:45:39;;;;;;;1.75;0.90;;;11.30;99.90;;;;;;4889107;28;20031;-86
2022/02/16 12:48:04;;;;;;;1.73;0.90;;;11.30;99.90;;;;;;4897370;28;20039;-87
2022/02/16 12:50:30;;;;;;;1.45;0.80;;;11.30;99.90;;;;;;4889776;28;20043;-86
2022/02/16 12:53:00;;;;;;;0.90;0.77;;;11.30;99.90;;;;;;4898151;28;20046;-86
2022/02/16 12:55:26;;;;;;;1.35;1.10;;;11.30;99.90;;;;;;4886798;29;20818;-86
2022/02/16 12:57:53;;;;;;;0.63;0.43;;;11.40;99.90;;;;;;4890472;29;20058;-87
2022/02/16 13:03:04;;;;;;;0.90;0.80;;;11.40;99.90;;;;;;4903528;28;20034;-87
2022/02/16 13:05:40;;;;;;;0.91;0.61;;;11.40;99.90;;;;;;4548843;28;10000562;-86
2022/02/16 13:08:06;;;;;;;0.35;0.35;;;11.40;99.90;;;;;;4891147;28;20059;-87
2022/02/16 13:10:33;;;;;;;1.75;0.80;;;11.40;99.90;;;;;;4908903;28;20126;-87
2022/02/16 13:12:59;;;;;;;1.48;0.60;;;11.40;99.90;;;;;;4891659;28;20040;-87
2022/02/16 13:15:32;;;;;;;1.30;0.55;;;11.40;99.90;;;;;;4891621;28;20068;-87
2022/02/16 13:17:58;;;;;;;2.53;0.60;;;11.50;99.90;;;;;;4904903;28;20028;-87
2022/02/16 13:20:43;;;;;;;0.98;0.88;;;11.50;99.90;;;;;;4890283;29;20039;-88
2022/02/16 13:23:21;;;;;;;1.30;0.77;;;11.50;99.90;;;;;;4868242;29;20060;-88
2022/02/16 13:26:34;;;;;;;0.80;0.57;;;11.50;99.90;;;;;;4879777;28;20039;-89
2022/02/16 13:29:03;;;;;;;1.48;0.77;;;11.40;99.90;;;;;;4892174;28;20046;-90
2022/02/16 13:49:56;;;;;;;1.33;0.70;;;11.30;99.90;;;;;;4932596;28;20049;-88
2022/02/16 13:52:45;;;;;;;0.60;0.60;;;11.30;99.90;;;;;;4888142;28;20039;-89
2022/02/16 13:55:11;;;;;;;4.93;0.80;;;11.30;99.90;;;;;;4907374;28;20110;-89
2022/02/16 13:57:41;;;;;;;1.40;0.55;;;11.30;99.90;;;;;;4886101;28;20039;-89
2022/02/16 14:00:09;;;;;;;5.22;1.05;;;11.30;99.90;;;;;;4911420;28;20078;-90
2022/02/16 14:02:38;;;;;;;5.00;0.90;;;11.30;99.90;;;;;;4923543;28;20515;-89
2022/02/16 14:05:07;;;;;;;1.08;0.30;;;11.30;99.90;;;;;;4876645;28;20095;-89
2022/02/16 14:07:42;;;;;;;4.70;1.10;;;11.30;99.90;;;;;;4920271;28;20577;-88
2022/02/16 14:10:08;;;;;;;0.65;0.40;;;11.30;99.90;;;;;;4871150;28;20123;-89
2022/02/16 14:12:55;;;;;;;4.93;0.80;;;11.20;99.90;;;;;;4909704;28;20531;-88
2022/02/16 14:15:31;;;;;;;;;;;11.20;99.90;;;;;;4903998;29;20493;-88
2022/02/16 14:18:07;;;;;;;1.40;0.93;;;11.20;99.90;;;;;;4889046;28;19977;-88
2022/02/16 14:20:33;;;;;;;5.05;1.08;;;11.20;99.90;;;;;;4903299;28;20039;-88
2022/02/16 14:23:31;;;;;;;6.15;1.63;;;11.20;99.90;;;;;;4931675;28;20516;-88
2022/02/16 14:26:00;;;;;;;9.18;1.83;;;11.20;99.90;;;;;;4913445;28;20028;-88
2022/02/16 14:29:06;;;;;;;8.98;1.02;;;11.20;99.90;;;;;;4913011;29;20046;-88
2022/02/16 14:31:36;;;;;;;2.90;0.82;;;11.20;99.90;;;;;;4894524;28;20107;-87
2022/02/16 14:34:02;;;;;;;3.20;1.63;;;11.30;99.90;;;;;;4899758;29;20028;-88
2022/02/16 14:36:27;;;;;;;8.10;1.40;;;11.30;99.90;;;;;;4903022;29;20044;-87
2022/02/16 14:38:59;;;;;;;6.55;1.40;;;11.30;99.90;;;;;;4884709;28;20121;-87
2022/02/16 14:41:25;;;;;;;11.75;1.35;;;11.30;99.90;;;;;;4820567;29;20124;-89
2022/02/16 14:43:51;;;;;;;6.72;1.60;;;11.30;99.90;;;;;;4880395;28;20102;-88
2022/02/16 14:46:25;;;;;;;4.03;1.25;;;11.30;99.90;;;;;;4913202;29;20032;-88
2022/02/16 14:48:52;;;;;;;6.00;1.95;;;11.30;99.90;;;;;;4924795;28;20069;-88
2022/02/16 14:51:19;;;;;;;13.55;2.40;;;11.30;99.90;;;;;;4885483;29;20318;-88
2022/02/16 14:53:44;;;;;;;20.67;2.28;;;11.30;99.90;;;;;;4906655;29;20040;-88
2022/02/16 14:56:10;;;;;;;8.70;2.00;;;11.30;99.90;;;;;;4893803;29;20653;-88
2022/02/16 14:58:36;;;;;;;10.02;2.50;;;11.30;99.90;;;;;;4884950;29;20062;-88
2022/02/16 15:01:20;;;;;;;6.88;1.85;;;11.30;99.90;;;;;;4902787;28;20122;-88
2022/02/16 15:03:46;;;;;;;10.88;1.92;;;11.40;99.90;;;;;;4883831;29;20036;-88
2022/02/16 15:06:12;;;;;;;10.85;1.70;;;11.40;99.90;;;;;;4932518;28;20044;-88
2022/02/16 15:08:40;;;;;;;10.93;2.50;;;11.40;99.90;;;;;;4893180;29;20123;-88
2022/02/16 15:11:11;;;;;;;8.48;1.77;;;11.40;99.90;;;;;;4892820;29;20047;-88
2022/02/16 15:13:39;;;;;;;10.57;2.00;;;11.50;99.90;;;;;;4898368;29;20032;-88
2022/02/16 15:16:17;;;;;;;15.23;2.08;;;11.40;99.90;;;;;;4905578;28;20032;-88
2022/02/16 15:18:43;;;;;;;8.55;1.58;;;11.40;99.90;;;;;;4897441;29;20549;-88
2022/02/16 15:21:16;;;;;;;11.93;1.70;;;11.40;99.90;;;;;;4873675;29;20127;-88
2022/02/16 15:23:52;;;;;;;;;;;;;;;;;;;;;
2022/02/16 15:26:19;;;;;;;13.63;2.45;;;11.40;99.90;;;;;;4892839;29;20055;-88
2022/02/16 15:28:44;;;;;;;16.92;2.95;;;11.40;99.90;;;;;;4892680;29;20496;-87
2022/02/16 15:31:10;;;;;;;13.27;2.13;;;11.40;99.90;;;;;;4910716;29;20051;-89
2022/02/16 15:33:36;;;;;;;11.00;2.17;;;11.40;99.90;;;;;;4913296;29;20028;-89
2022/02/16 15:36:02;;;;;;;15.73;2.45;;;11.40;99.90;;;;;;4911184;29;20062;-88
2022/02/16 15:38:42;;;;;;;9.70;1.95;;;11.40;99.90;;;;;;4904757;29;20036;-88
2022/02/16 15:41:13;;;;;;;7.72;1.98;;;11.40;99.90;;;;;;4901809;29;20048;-88
2022/02/16 15:43:41;;;;;;;7.72;2.38;;;11.30;99.90;;;;;;4920666;28;20048;-88
2022/02/16 15:46:10;;;;;;;10.32;2.28;;;11.40;99.90;;;;;;4906553;28;20567;-88
2022/02/16 15:48:36;;;;;;;9.15;2.83;;;11.40;99.90;;;;;;4892249;28;20067;-88
2022/02/16 15:51:02;;;;;;;7.97;2.63;;;11.40;99.90;;;;;;4916084;29;20055;-88
2022/02/16 15:53:37;;;;;;;8.98;1.67;;;11.40;99.90;;;;;;4923491;28;20036;-88
2022/02/16 15:56:03;;;;;;;11.98;2.35;;;11.30;99.90;;;;;;4898282;29;20044;-88
2022/02/16 15:58:29;;;;;;;18.67;2.28;;;11.40;99.90;;;;;;4879559;29;20118;-88
2022/02/16 16:00:57;;;;;;;15.48;2.38;;;11.40;99.90;;;;;;4910618;29;20040;-87
2022/02/16 16:03:29;;;;;;;13.43;2.42;;;11.40;99.90;;;;;;4908638;29;20047;-87
2022/02/16 16:06:04;;;;;;;7.32;2.25;;;11.30;99.90;;;;;;4918045;28;20044;-88
2022/02/16 16:08:35;;;;;;;11.13;2.20;;;11.40;99.90;;;;;;4891881;29;20441;-88
2022/02/16 16:11:01;;;;;;;8.23;1.48;;;11.40;99.90;;;;;;4890429;29;20028;-88
2022/02/16 16:13:39;;;;;;;12.80;2.15;;;11.40;99.90;;;;;;4859256;29;20066;-87
2022/02/16 16:16:05;;;;;;;16.08;2.38;;;11.40;99.90;;;;;;4869126;29;20465;-87
2022/02/16 16:18:33;;;;;;;8.85;1.58;;;11.40;99.90;;;;;;4906541;29;20320;-87
2022/02/16 16:20:59;;;;;;;19.67;3.22;;;11.40;99.90;;;;;;4911275;29;20037;-87
2022/02/16 16:23:27;;;;;;;15.05;2.67;;;11.40;99.90;;;;;;4901354;28;20075;-88
2022/02/16 16:25:53;;;;;;;13.73;2.58;;;11.50;99.90;;;;;;4895981;29;20039;-87
2022/02/16 16:28:19;;;;;;;19.05;2.67;;;11.50;99.90;;;;;;4916025;28;20114;-88
2022/02/16 16:30:47;;;;;;;9.90;1.90;;;11.40;99.90;;;;;;4883404;28;20091;-87
2022/02/16 16:33:13;;;;;;;14.60;2.58;;;11.40;99.90;;;;;;4880370;29;20044;-88
2022/02/16 16:35:39;;;;;;;16.23;3.13;;;11.40;99.90;;;;;;4871781;29;20075;-88
2022/02/16 16:38:06;;;;;;;8.02;2.55;;;11.40;99.90;;;;;;4907295;29;20048;-88
2022/02/16 16:40:34;;;;;;;14.90;2.10;;;11.30;99.90;;;;;;4900778;29;20040;-87
2022/02/16 16:43:00;;;;;;;13.13;2.38;;;11.30;99.90;;;;;;4895557;29;20548;-88
2022/02/16 16:45:36;;;;;;;16.40;3.00;;;11.40;99.90;;;;;;4900985;29;20099;-88
2022/02/16 16:48:05;;;;;;;;;;;11.30;99.90;;;;;;4885863;29;20424;-88
2022/02/16 16:50:34;;;;;;;16.95;3.08;;;11.30;99.90;;;;;;4867770;29;19924;-88
2022/02/16 16:53:00;;;;;;;17.33;3.40;;;11.30;99.90;;;;;;4905143;29;20132;-88
2022/02/16 16:56:38;;;;;;;17.60;2.47;;;11.20;99.90;;;;;;4894741;28;20191;-89
2022/02/16 16:59:31;;;;;;;11.32;2.50;;;11.20;99.90;;;;;;4895318;29;20551;-88